createdAt,value
2019-03-15T00:01:08.825Z,2.40
2019-03-15T00:03:38.363Z,1.97
2019-03-15T00:06:07.965Z,2.40
2019-03-15T00:08:37.983Z,2.10
2019-03-15T00:11:07.831Z,2.27
2019-03-15T00:13:38.210Z,2.03
2019-03-15T00:16:08.636Z,3.20
2019-03-15T00:18:38.296Z,1.90
2019-03-15T00:21:07.859Z,2.40
2019-03-15T00:23:37.487Z,2.20
2019-03-15T00:26:07.083Z,1.70
2019-03-15T00:28:36.614Z,2.10
2019-03-15T00:31:06.224Z,2.10
2019-03-15T00:33:35.814Z,2.70
2019-03-15T00:36:05.979Z,2.87
2019-03-15T00:38:35.586Z,1.90
2019-03-15T00:41:05.166Z,2.20
2019-03-15T00:43:34.736Z,1.70
2019-03-15T00:46:04.350Z,2.40
2019-03-15T00:48:33.938Z,1.80
2019-03-15T00:51:22.838Z,2.07
2019-03-15T00:53:54.381Z,2.00
2019-03-15T00:56:23.744Z,2.00
2019-03-15T00:58:53.298Z,1.50
2019-03-15T01:01:22.885Z,2.00
2019-03-15T01:03:52.489Z,1.80
2019-03-15T01:06:22.086Z,1.63
2019-03-15T01:08:51.626Z,2.70
2019-03-15T01:11:21.194Z,2.20
2019-03-15T01:13:52.158Z,1.70
2019-03-15T01:16:21.752Z,1.70
2019-03-15T01:18:51.314Z,1.70
2019-03-15T01:21:20.907Z,1.50
2019-03-15T01:23:50.480Z,1.40
2019-03-15T01:26:20.106Z,2.20
2019-03-15T01:28:49.653Z,2.13
2019-03-15T01:31:19.309Z,2.20
2019-03-15T01:33:48.890Z,2.00
2019-03-15T01:36:18.436Z,1.60
2019-03-15T01:38:48.036Z,2.43
2019-03-15T01:41:17.616Z,2.07
2019-03-15T01:43:48.862Z,2.13
2019-03-15T01:46:18.408Z,2.07
2019-03-15T01:48:48.050Z,2.10
2019-03-15T01:51:18.666Z,2.20
2019-03-15T01:53:48.488Z,2.53
2019-03-15T01:56:20.313Z,2.00
2019-03-15T01:58:49.919Z,2.10
2019-03-15T02:01:19.494Z,2.20
2019-03-15T02:03:49.098Z,2.37
2019-03-15T02:06:18.773Z,2.10
2019-03-15T02:08:48.444Z,2.37
2019-03-15T02:11:18.065Z,2.27
2019-03-15T02:13:47.645Z,2.07
2019-03-15T02:16:18.489Z,2.03
2019-03-15T02:18:48.053Z,1.57
2019-03-15T02:21:18.450Z,2.27
2019-03-15T02:23:48.651Z,2.17
2019-03-15T02:26:18.207Z,1.80
2019-03-15T02:28:47.822Z,1.70
2019-03-15T02:31:17.416Z,3.20
2019-03-15T02:33:46.969Z,2.03
2019-03-15T02:36:16.556Z,2.80
2019-03-15T02:38:46.199Z,2.23
2019-03-15T02:41:15.830Z,2.70
2019-03-15T02:43:45.889Z,2.00
2019-03-15T02:46:16.237Z,1.87
2019-03-15T02:48:45.861Z,2.60
2019-03-15T02:51:15.939Z,1.90
2019-03-15T02:53:45.524Z,1.83
2019-03-15T02:56:15.527Z,2.33
2019-03-15T02:58:48.159Z,2.30
2019-03-15T03:01:17.744Z,1.97
2019-03-15T03:03:50.501Z,1.87
2019-03-15T03:06:20.150Z,2.33
2019-03-15T03:08:49.831Z,2.43
2019-03-15T03:11:19.371Z,2.07
2019-03-15T03:13:48.986Z,2.13
2019-03-15T03:16:19.011Z,2.03
2019-03-15T03:18:49.359Z,2.17
2019-03-15T03:21:20.319Z,2.27
2019-03-15T03:23:49.931Z,2.40
2019-03-15T03:26:19.580Z,1.80
2019-03-15T03:28:49.262Z,2.40
2019-03-15T03:31:19.132Z,2.20
2019-03-15T03:33:48.738Z,2.07
2019-03-15T03:36:21.370Z,2.50
2019-03-15T03:38:50.915Z,1.87
2019-03-15T03:41:20.532Z,2.17
2019-03-15T03:43:50.169Z,2.10
2019-03-15T03:46:19.739Z,2.60
2019-03-15T03:48:51.045Z,1.87
2019-03-15T03:51:21.824Z,2.40
2019-03-15T03:53:51.515Z,2.00
2019-03-15T03:56:21.141Z,2.20
2019-03-15T03:58:50.737Z,2.00
2019-03-15T04:01:20.325Z,1.97
2019-03-15T04:03:49.964Z,2.37
2019-03-15T04:06:19.516Z,2.13
2019-03-15T04:08:49.121Z,2.13
2019-03-15T04:11:18.694Z,1.70
2019-03-15T04:13:48.283Z,1.93
2019-03-15T04:16:17.869Z,1.97
2019-03-15T04:18:47.518Z,2.53
2019-03-15T04:21:17.081Z,1.73
2019-03-15T04:23:46.672Z,1.80
2019-03-15T04:26:16.245Z,2.17
2019-03-15T04:28:45.825Z,1.90
2019-03-15T04:31:15.361Z,1.80
2019-03-15T04:33:44.956Z,1.90
2019-03-15T04:36:14.534Z,1.93
2019-03-15T04:38:44.051Z,2.00
2019-03-15T04:41:13.634Z,1.83
2019-03-15T04:43:43.271Z,2.07
2019-03-15T04:46:14.470Z,1.73
2019-03-15T04:48:44.091Z,2.00
2019-03-15T04:51:13.698Z,1.67
2019-03-15T04:53:43.277Z,1.73
2019-03-15T04:56:12.887Z,2.37
2019-03-15T04:58:42.469Z,2.43
2019-03-15T05:01:12.071Z,1.77
2019-03-15T05:03:43.266Z,1.73
2019-03-15T05:06:12.849Z,1.87
2019-03-15T05:08:42.395Z,1.70
2019-03-15T05:11:12.008Z,1.90
2019-03-15T05:13:41.594Z,1.60
2019-03-15T05:16:11.121Z,1.60
2019-03-15T05:18:40.709Z,2.17
2019-03-15T05:21:11.930Z,1.80
2019-03-15T05:23:41.542Z,2.03
2019-03-15T05:26:11.072Z,1.80
2019-03-15T05:28:40.637Z,2.20
2019-03-15T05:31:10.287Z,2.00
2019-03-15T05:33:39.908Z,1.57
2019-03-15T05:36:11.153Z,1.90
2019-03-15T05:38:40.715Z,2.17
2019-03-15T05:41:10.263Z,2.57
2019-03-15T05:43:41.534Z,1.70
2019-03-15T05:46:12.748Z,2.10
2019-03-15T05:48:42.349Z,1.97
2019-03-15T05:51:11.949Z,2.30
2019-03-15T05:53:41.511Z,1.80
2019-03-15T05:56:11.119Z,2.43
2019-03-15T05:58:40.738Z,2.10
2019-03-15T06:01:10.399Z,1.70
2019-03-15T06:03:48.525Z,1.67
2019-03-15T06:06:12.257Z,1.53
2019-03-15T06:08:44.960Z,2.37
2019-03-15T06:11:16.144Z,2.17
2019-03-15T06:13:45.695Z,2.50
2019-03-15T06:16:15.277Z,2.37
2019-03-15T06:18:44.909Z,2.10
2019-03-15T06:21:14.512Z,2.30
2019-03-15T06:23:44.077Z,2.43
2019-03-15T06:26:14.782Z,2.30
2019-03-15T06:28:44.388Z,2.50
2019-03-15T06:31:13.919Z,2.00
2019-03-15T06:33:43.557Z,1.57
2019-03-15T06:36:13.167Z,1.70
2019-03-15T06:38:43.497Z,2.00
2019-03-15T06:41:14.523Z,1.77
2019-03-15T06:43:45.381Z,2.13
2019-03-15T06:46:14.974Z,2.07
2019-03-15T06:48:45.294Z,1.80
2019-03-15T06:51:15.563Z,2.60
2019-03-15T06:53:47.779Z,1.63
2019-03-15T06:56:16.422Z,1.50
2019-03-15T06:58:45.947Z,2.10
2019-03-15T07:01:15.557Z,1.97
2019-03-15T07:03:45.844Z,1.60
2019-03-15T07:06:15.413Z,2.40
2019-03-15T07:08:44.960Z,1.77
2019-03-15T07:11:14.587Z,1.87
2019-03-15T07:13:44.179Z,1.87
2019-03-15T07:16:13.795Z,1.80
2019-03-15T07:18:46.285Z,2.07
2019-03-15T07:21:15.823Z,1.60
2019-03-15T07:23:45.399Z,1.80
2019-03-15T07:26:15.013Z,2.03
2019-03-15T07:28:44.591Z,1.80
2019-03-15T07:31:14.176Z,1.93
2019-03-15T07:33:43.809Z,1.70
2019-03-15T07:36:13.365Z,2.00
2019-03-15T07:38:42.982Z,2.17
2019-03-15T07:41:12.573Z,1.80
2019-03-15T07:43:42.151Z,1.87
2019-03-15T07:46:11.771Z,1.83
2019-03-15T07:48:41.332Z,2.10
2019-03-15T07:51:10.943Z,1.80
2019-03-15T07:53:40.534Z,1.97
2019-03-15T07:56:10.071Z,1.70
2019-03-15T07:58:39.664Z,1.70
2019-03-15T08:01:09.313Z,1.80
2019-03-15T08:03:38.907Z,1.93
2019-03-15T08:06:08.526Z,1.47
2019-03-15T08:08:38.190Z,2.00
2019-03-15T08:11:08.319Z,1.77
2019-03-15T08:13:37.913Z,2.03
2019-03-15T08:16:08.368Z,2.00
2019-03-15T08:18:37.924Z,2.70
2019-03-15T08:21:07.502Z,1.90
2019-03-15T08:23:38.699Z,1.67
2019-03-15T08:26:08.401Z,1.80
2019-03-15T08:28:37.995Z,1.80
2019-03-15T08:31:08.614Z,2.30
2019-03-15T08:33:38.185Z,1.50
2019-03-15T08:36:07.747Z,2.03
2019-03-15T08:38:46.730Z,1.80
2019-03-15T08:41:10.248Z,1.60
2019-03-15T08:43:39.855Z,2.13
2019-03-15T08:46:09.425Z,1.87
2019-03-15T08:48:38.964Z,2.00
2019-03-15T08:51:11.986Z,1.33
2019-03-15T08:53:41.609Z,2.10
2019-03-15T08:56:14.408Z,1.70
2019-03-15T08:58:42.492Z,2.00
2019-03-15T09:01:12.089Z,2.03
2019-03-15T09:03:41.730Z,1.63
2019-03-15T09:06:11.343Z,2.10
2019-03-15T09:08:40.919Z,2.00
2019-03-15T09:11:10.513Z,2.37
2019-03-15T09:13:40.138Z,2.20
2019-03-15T09:16:09.733Z,2.10
2019-03-15T09:18:39.333Z,2.37
2019-03-15T09:21:08.941Z,1.63
2019-03-15T09:23:38.547Z,1.80
2019-03-15T09:26:10.453Z,2.37
2019-03-15T09:28:39.696Z,2.03
2019-03-15T09:31:09.285Z,2.23
2019-03-15T09:33:38.871Z,2.17
2019-03-15T09:36:08.433Z,2.37
2019-03-15T09:38:38.005Z,2.20
2019-03-15T09:41:07.570Z,2.00
2019-03-15T09:43:37.144Z,2.67
2019-03-15T09:46:06.679Z,2.57
2019-03-15T09:48:36.337Z,2.23
2019-03-15T09:51:05.922Z,2.63
2019-03-15T09:53:35.478Z,2.63
2019-03-15T09:56:05.014Z,2.37
2019-03-15T09:58:35.332Z,2.00
2019-03-15T10:01:05.241Z,2.77
2019-03-15T10:03:35.662Z,1.97
2019-03-15T10:06:14.892Z,2.53
2019-03-15T10:08:36.961Z,2.30
2019-03-15T10:11:06.482Z,2.47
2019-03-15T10:13:36.857Z,2.30
2019-03-15T10:16:06.425Z,2.97
2019-03-15T10:18:36.520Z,2.57
2019-03-15T10:21:09.342Z,1.93
2019-03-15T10:23:38.377Z,2.40
2019-03-15T10:26:07.990Z,2.17
2019-03-15T10:28:37.579Z,2.40
2019-03-15T10:31:07.148Z,1.83
2019-03-15T10:33:49.870Z,2.30
2019-03-15T10:36:09.104Z,2.70
2019-03-15T10:38:38.721Z,2.50
2019-03-15T10:41:08.297Z,2.27
2019-03-15T10:43:37.877Z,2.13
2019-03-15T10:46:07.420Z,2.40
2019-03-15T10:48:37.037Z,2.17
2019-03-15T10:51:07.339Z,2.07
2019-03-15T10:53:36.932Z,3.33
2019-03-15T10:56:07.530Z,2.43
2019-03-15T10:58:38.509Z,2.13
2019-03-15T11:01:08.124Z,2.17
2019-03-15T11:03:37.793Z,2.57
2019-03-15T11:06:07.378Z,2.20
2019-03-15T11:08:37.097Z,2.23
2019-03-15T11:11:06.879Z,2.60
2019-03-15T11:13:36.507Z,2.63
2019-03-15T11:16:06.111Z,2.50
2019-03-15T11:18:37.302Z,2.30
2019-03-15T11:21:06.844Z,1.93
2019-03-15T11:23:37.837Z,1.97
2019-03-15T11:26:13.656Z,2.33
2019-03-15T11:28:38.716Z,2.27
2019-03-15T11:31:08.296Z,2.57
2019-03-15T11:33:38.143Z,2.43
2019-03-15T11:36:07.775Z,2.20
2019-03-15T11:38:37.330Z,2.40
2019-03-15T11:41:07.160Z,2.77
2019-03-15T11:43:36.738Z,2.70
2019-03-15T11:46:06.336Z,2.00
2019-03-15T11:48:35.941Z,2.17
2019-03-15T11:51:05.532Z,2.10
2019-03-15T11:53:35.067Z,2.40
2019-03-15T11:56:05.593Z,2.50
2019-03-15T11:58:35.166Z,2.77
2019-03-15T12:01:05.763Z,3.07
2019-03-15T12:03:35.341Z,2.83
2019-03-15T12:06:04.909Z,2.30
2019-03-15T12:08:34.481Z,2.87
2019-03-15T12:11:04.074Z,2.00
2019-03-15T12:13:34.690Z,2.47
2019-03-15T12:16:04.434Z,2.43
2019-03-15T12:18:34.005Z,2.97
2019-03-15T12:21:05.173Z,2.33
2019-03-15T12:23:37.073Z,1.87
2019-03-15T12:26:09.882Z,2.13
2019-03-15T12:28:37.980Z,2.53
2019-03-15T12:31:08.344Z,3.10
2019-03-15T12:33:37.881Z,2.40
2019-03-15T12:36:07.532Z,2.33
2019-03-15T12:38:37.126Z,2.10
2019-03-15T12:41:06.731Z,2.43
2019-03-15T12:43:36.335Z,2.33
2019-03-15T12:46:05.910Z,3.33
2019-03-15T12:48:36.461Z,2.70
2019-03-15T12:51:06.066Z,3.50
2019-03-15T12:53:35.687Z,2.77
2019-03-15T12:56:05.369Z,2.57
2019-03-15T12:58:34.941Z,2.73
2019-03-15T13:01:04.475Z,2.90
2019-03-15T13:03:34.105Z,3.17
2019-03-15T13:06:03.632Z,2.17
2019-03-15T13:08:33.246Z,2.90
2019-03-15T13:11:02.809Z,2.90
2019-03-15T13:13:32.409Z,2.50
2019-03-15T13:16:01.953Z,3.50
2019-03-15T13:18:31.523Z,2.93
2019-03-15T13:21:01.174Z,2.67
2019-03-15T13:23:30.735Z,2.90
2019-03-15T13:26:00.348Z,2.97
2019-03-15T13:28:29.964Z,3.77
2019-03-15T13:31:00.282Z,3.07
2019-03-15T13:33:29.866Z,2.90
2019-03-15T13:35:59.483Z,3.47
2019-03-15T13:38:29.083Z,3.17
2019-03-15T13:40:58.714Z,2.43
2019-03-15T13:43:28.301Z,3.37
2019-03-15T13:45:57.911Z,2.70
2019-03-15T13:48:27.461Z,3.17
2019-03-15T13:50:57.085Z,3.33
2019-03-15T13:53:26.722Z,3.50
2019-03-15T13:55:56.299Z,2.70
2019-03-15T13:58:25.881Z,3.40
2019-03-15T14:00:55.514Z,2.80
2019-03-15T14:03:25.069Z,3.37
2019-03-15T14:05:54.709Z,3.23
2019-03-15T14:08:24.288Z,3.53
2019-03-15T14:10:53.920Z,3.00
2019-03-15T14:13:24.081Z,3.37
2019-03-15T14:15:53.650Z,3.33
2019-03-15T14:18:23.343Z,3.33
2019-03-15T14:20:52.911Z,3.80
2019-03-15T14:23:22.443Z,2.77
2019-03-15T14:25:52.069Z,3.73
2019-03-15T14:28:21.669Z,3.60
2019-03-15T14:30:51.263Z,2.90
2019-03-15T14:33:20.825Z,3.60
2019-03-15T14:35:50.453Z,3.43
2019-03-15T14:38:21.333Z,3.93
2019-03-15T14:40:50.974Z,3.23
2019-03-15T14:43:20.622Z,2.83
2019-03-15T14:45:50.249Z,3.27
2019-03-15T14:48:19.850Z,3.13
2019-03-15T14:50:49.458Z,4.20
2019-03-15T14:53:19.032Z,2.57
2019-03-15T14:55:48.606Z,3.30
2019-03-15T14:58:19.273Z,3.63
2019-03-15T15:00:50.477Z,3.60
2019-03-15T15:03:20.073Z,2.87
2019-03-15T15:05:49.676Z,3.00
2019-03-15T15:08:19.290Z,3.23
2019-03-15T15:10:48.864Z,3.67
2019-03-15T15:13:18.424Z,3.37
2019-03-15T15:15:47.982Z,3.20
2019-03-15T15:18:18.954Z,3.23
2019-03-15T15:20:48.546Z,2.87
2019-03-15T15:23:18.107Z,3.90
2019-03-15T15:25:47.720Z,3.33
2019-03-15T15:28:17.366Z,3.10
2019-03-15T15:30:46.918Z,3.43
2019-03-15T15:33:16.490Z,3.07
2019-03-15T15:35:46.092Z,3.20
2019-03-15T15:38:15.680Z,3.37
2019-03-15T15:40:45.229Z,3.00
2019-03-15T15:43:17.538Z,3.57
2019-03-15T15:45:47.113Z,2.87
2019-03-15T15:48:16.689Z,3.00
2019-03-15T15:50:46.317Z,3.13
2019-03-15T15:53:15.929Z,2.87
2019-03-15T15:55:45.537Z,3.17
2019-03-15T15:58:18.238Z,3.17
2019-03-15T16:00:46.394Z,3.27
2019-03-15T16:03:16.002Z,2.37
2019-03-15T16:05:45.623Z,2.97
2019-03-15T16:08:15.212Z,2.60
2019-03-15T16:10:44.821Z,3.40
2019-03-15T16:13:17.795Z,2.43
2019-03-15T16:15:45.716Z,2.73
2019-03-15T16:18:15.258Z,2.47
2019-03-15T16:20:44.836Z,2.93
2019-03-15T16:23:14.485Z,3.07
2019-03-15T16:25:44.061Z,2.77
2019-03-15T16:28:13.688Z,3.60
2019-03-15T16:30:43.231Z,2.87
2019-03-15T16:33:13.859Z,2.83
2019-03-15T16:35:43.487Z,2.77
2019-03-15T16:38:13.084Z,2.63
2019-03-15T16:40:42.678Z,2.50
2019-03-15T16:43:12.275Z,3.13
2019-03-15T16:45:43.200Z,3.10
2019-03-15T16:48:15.603Z,2.90
2019-03-15T16:50:45.205Z,2.90
2019-03-15T16:53:14.887Z,2.60
2019-03-15T16:55:44.498Z,3.30
2019-03-15T16:58:14.872Z,3.17
2019-03-15T17:00:44.425Z,3.03
2019-03-15T17:03:14.046Z,3.27
2019-03-15T17:05:43.650Z,2.97
2019-03-15T17:08:14.660Z,3.27
2019-03-15T17:10:44.207Z,3.90
2019-03-15T17:13:13.972Z,3.10
2019-03-15T17:15:43.687Z,2.93
2019-03-15T17:18:14.915Z,3.07
2019-03-15T17:20:44.522Z,3.20
2019-03-15T17:23:14.102Z,2.83
2019-03-15T17:25:44.669Z,3.23
2019-03-15T17:28:14.289Z,3.17
2019-03-15T17:30:43.893Z,2.93
2019-03-15T17:33:13.546Z,2.87
2019-03-15T17:35:43.184Z,3.37
2019-03-15T17:38:12.793Z,3.10
2019-03-15T17:40:42.353Z,3.73
2019-03-15T17:43:12.019Z,3.33
2019-03-15T17:45:41.677Z,2.80
2019-03-15T17:48:11.297Z,3.20
2019-03-15T17:50:40.856Z,3.37
2019-03-15T17:53:10.438Z,3.20
2019-03-15T17:55:40.083Z,2.80
2019-03-15T17:58:09.691Z,3.53
2019-03-15T18:00:44.086Z,3.50
2019-03-15T18:03:20.817Z,3.30
2019-03-15T18:05:45.461Z,2.93
2019-03-15T18:08:15.092Z,2.97
2019-03-15T18:10:44.714Z,2.50
2019-03-15T18:13:14.391Z,2.60
2019-03-15T18:15:44.042Z,2.77
2019-03-15T18:18:13.610Z,2.57
2019-03-15T18:20:44.889Z,2.90
2019-03-15T18:23:14.485Z,3.60
2019-03-15T18:25:44.071Z,3.27
2019-03-15T18:28:13.669Z,2.70
2019-03-15T18:30:43.277Z,2.70
2019-03-15T18:33:12.833Z,2.97
2019-03-15T18:35:42.555Z,3.00
2019-03-15T18:38:12.113Z,2.80
2019-03-15T18:40:41.771Z,3.53
2019-03-15T18:43:11.311Z,2.27
2019-03-15T18:45:40.956Z,3.20
2019-03-15T18:48:10.603Z,1.90
2019-03-15T18:50:40.158Z,3.83
2019-03-15T18:53:09.762Z,3.47
2019-03-15T18:55:39.330Z,3.27
2019-03-15T18:58:08.992Z,3.23
2019-03-15T19:00:38.596Z,2.37
2019-03-15T19:03:08.210Z,2.83
2019-03-15T19:05:37.832Z,2.60
2019-03-15T19:08:07.445Z,2.53
2019-03-15T19:10:38.680Z,3.10
2019-03-15T19:13:08.336Z,2.80
2019-03-15T19:15:37.946Z,3.13
2019-03-15T19:18:07.527Z,2.80
2019-03-15T19:20:37.245Z,2.67
2019-03-15T19:23:06.914Z,3.07
2019-03-15T19:25:36.514Z,2.93
2019-03-15T19:28:06.138Z,2.77
2019-03-15T19:30:35.754Z,1.83
2019-03-15T19:33:05.307Z,2.47
2019-03-15T19:35:34.925Z,2.60
2019-03-15T19:38:04.525Z,2.40
2019-03-15T19:40:34.225Z,2.70
2019-03-15T19:43:04.189Z,2.13
2019-03-15T19:45:33.791Z,2.33
2019-03-15T19:48:03.371Z,2.53
2019-03-15T19:50:32.978Z,2.60
2019-03-15T19:53:02.596Z,2.50
2019-03-15T19:55:32.159Z,2.53
2019-03-15T19:58:01.786Z,2.70
2019-03-15T20:00:31.317Z,2.47
2019-03-15T20:03:00.917Z,2.50
2019-03-15T20:05:30.517Z,2.80
2019-03-15T20:08:00.267Z,2.47
2019-03-15T20:10:29.952Z,2.60
2019-03-15T20:13:02.522Z,2.43
2019-03-15T20:15:30.824Z,2.30
2019-03-15T20:18:00.407Z,2.50
2019-03-15T20:20:29.988Z,2.80
2019-03-15T20:22:59.601Z,2.40
2019-03-15T20:25:29.210Z,2.90
2019-03-15T20:27:58.778Z,2.63
2019-03-15T20:30:28.411Z,2.37
2019-03-15T20:32:58.064Z,3.37
2019-03-15T20:35:27.645Z,2.70
2019-03-15T20:37:57.318Z,3.63
2019-03-15T20:40:26.925Z,2.67
2019-03-15T20:42:57.786Z,2.93
2019-03-15T20:45:27.413Z,2.40
2019-03-15T20:47:58.628Z,2.87
2019-03-15T20:50:28.253Z,3.77
2019-03-15T20:53:07.573Z,2.63
2019-03-15T20:55:29.315Z,3.20
2019-03-15T20:57:59.479Z,2.93
2019-03-15T21:00:35.467Z,2.63
2019-03-15T21:03:00.463Z,2.60
2019-03-15T21:05:30.131Z,3.10
2019-03-15T21:07:59.715Z,2.27
2019-03-15T21:10:29.302Z,2.37
2019-03-15T21:12:58.894Z,2.37
2019-03-15T21:15:28.511Z,2.60
2019-03-15T21:17:58.113Z,2.97
2019-03-15T21:20:27.682Z,2.87
2019-03-15T21:22:57.302Z,2.50
2019-03-15T21:25:26.899Z,2.20
2019-03-15T21:27:56.472Z,2.43
2019-03-15T21:30:26.136Z,2.90
2019-03-15T21:32:56.725Z,2.40
2019-03-15T21:35:26.375Z,2.50
2019-03-15T21:37:56.019Z,2.30
2019-03-15T21:40:25.601Z,2.53
2019-03-15T21:42:55.167Z,2.83
2019-03-15T21:45:24.751Z,2.97
2019-03-15T21:47:54.325Z,2.47
2019-03-15T21:50:23.931Z,2.00
2019-03-15T21:52:53.548Z,2.10
2019-03-15T21:55:23.163Z,2.57
2019-03-15T21:57:52.779Z,3.07
2019-03-15T22:00:22.338Z,2.40
2019-03-15T22:02:51.939Z,3.03
2019-03-15T22:05:21.514Z,2.27
2019-03-15T22:07:51.124Z,2.30
2019-03-15T22:10:20.768Z,2.20
2019-03-15T22:12:50.353Z,2.67
2019-03-15T22:15:19.954Z,2.63
2019-03-15T22:17:49.664Z,2.70
2019-03-15T22:20:20.884Z,2.90
2019-03-15T22:22:50.469Z,2.80
2019-03-15T22:25:20.032Z,2.53
2019-03-15T22:27:50.328Z,3.10
2019-03-15T22:30:20.680Z,2.60
2019-03-15T22:32:50.238Z,2.27
2019-03-15T22:35:19.865Z,2.70
2019-03-15T22:37:49.390Z,2.63
2019-03-15T22:40:18.972Z,2.43
2019-03-15T22:42:48.646Z,2.53
2019-03-15T22:45:18.217Z,1.73
2019-03-15T22:47:47.775Z,2.30
2019-03-15T22:50:17.398Z,2.10
2019-03-15T22:52:46.932Z,2.03
2019-03-15T22:55:16.560Z,2.27
2019-03-15T22:57:58.881Z,2.30
2019-03-15T23:00:17.428Z,2.00
2019-03-15T23:02:48.904Z,2.50
2019-03-15T23:05:18.551Z,2.20
2019-03-15T23:07:48.133Z,2.30
2019-03-15T23:10:17.718Z,2.37
2019-03-15T23:12:47.303Z,2.20
2019-03-15T23:15:16.889Z,2.20
2019-03-15T23:17:47.988Z,2.30
2019-03-15T23:20:17.545Z,2.47
2019-03-15T23:22:47.193Z,2.60
2019-03-15T23:25:16.771Z,2.00
2019-03-15T23:27:46.326Z,2.30
2019-03-15T23:30:18.273Z,2.57
2019-03-15T23:32:47.849Z,2.40
2019-03-15T23:35:17.431Z,2.23
2019-03-15T23:37:47.015Z,2.10
2019-03-15T23:40:16.580Z,1.97
2019-03-15T23:42:46.161Z,2.43
2019-03-15T23:45:15.755Z,1.53
2019-03-15T23:47:45.391Z,1.80
2019-03-15T23:50:15.023Z,2.87
2019-03-15T23:52:44.719Z,2.40
2019-03-15T23:55:14.269Z,2.20
2019-03-15T23:57:43.868Z,1.83
